sensor_id;sensor_type;location;lat;lon;timestamp;noise_LAeq;noise_LA_min;noise_LA_max;noise_LA01;noise_LA95
72276;Laerm;61204;49.980;8.358;2023-08-06T00:00:56;51.69;46.95;59.29;;
72276;Laerm;61204;49.980;8.358;2023-08-06T00:03:22;50.79;45.57;60.70;;
72276;Laerm;61204;49.980;8.358;2023-08-06T00:05:47;51.45;42.92;62.64;;
72276;Laerm;61204;49.980;8.358;2023-08-06T00:08:13;54.87;45.81;67.90;;
72276;Laerm;61204;49.980;8.358;2023-08-06T00:10:40;49.89;44.15;57.42;;
72276;Laerm;61204;49.980;8.358;2023-08-06T00:13:06;51.08;45.77;57.62;;
72276;Laerm;61204;49.980;8.358;2023-08-06T00:15:31;50.51;44.29;60.39;;
72276;Laerm;61204;49.980;8.358;2023-08-06T00:17:57;50.65;43.41;62.36;;
72276;Laerm;61204;49.980;8.358;2023-08-06T00:20:22;50.25;43.09;57.71;;
72276;Laerm;61204;49.980;8.358;2023-08-06T00:22:48;50.59;42.76;60.12;;
72276;Laerm;61204;49.980;8.358;2023-08-06T00:25:14;49.99;43.58;59.60;;
72276;Laerm;61204;49.980;8.358;2023-08-06T00:27:39;51.24;44.74;62.56;;
72276;Laerm;61204;49.980;8.358;2023-08-06T00:30:06;49.81;42.54;60.89;;
72276;Laerm;61204;49.980;8.358;2023-08-06T00:32:31;50.76;43.25;60.73;;
72276;Laerm;61204;49.980;8.358;2023-08-06T00:34:59;51.30;46.70;59.91;;
72276;Laerm;61204;49.980;8.358;2023-08-06T00:37:25;51.17;44.27;61.02;;
72276;Laerm;61204;49.980;8.358;2023-08-06T00:39:50;50.44;43.36;59.98;;
72276;Laerm;61204;49.980;8.358;2023-08-06T00:42:16;49.87;42.76;59.22;;
72276;Laerm;61204;49.980;8.358;2023-08-06T00:44:46;48.29;41.97;56.69;;
72276;Laerm;61204;49.980;8.358;2023-08-06T00:47:15;47.15;41.13;56.07;;
72276;Laerm;61204;49.980;8.358;2023-08-06T00:49:41;47.92;41.67;59.83;;
72276;Laerm;61204;49.980;8.358;2023-08-06T00:52:08;49.09;42.80;59.28;;
72276;Laerm;61204;49.980;8.358;2023-08-06T00:54:35;47.56;42.12;57.89;;
72276;Laerm;61204;49.980;8.358;2023-08-06T00:57:02;46.57;41.30;55.69;;
72276;Laerm;61204;49.980;8.358;2023-08-06T00:59:30;49.03;40.00;61.73;;
72276;Laerm;61204;49.980;8.358;2023-08-06T01:01:56;48.22;40.33;56.20;;
72276;Laerm;61204;49.980;8.358;2023-08-06T01:04:25;48.54;41.37;58.44;;
72276;Laerm;61204;49.980;8.358;2023-08-06T01:07:28;48.92;41.64;57.27;;
72276;Laerm;61204;49.980;8.358;2023-08-06T01:15:46;47.76;41.73;58.63;;
72276;Laerm;61204;49.980;8.358;2023-08-06T01:18:15;44.47;37.06;59.72;;
72276;Laerm;61204;49.980;8.358;2023-08-06T01:20:44;44.59;38.86;56.43;;
72276;Laerm;61204;49.980;8.358;2023-08-06T01:23:09;48.35;41.69;63.71;;
72276;Laerm;61204;49.980;8.358;2023-08-06T01:29:15;47.22;41.50;57.85;;
72276;Laerm;61204;49.980;8.358;2023-08-06T01:31:52;46.72;38.89;58.06;;
72276;Laerm;61204;49.980;8.358;2023-08-06T01:34:23;46.26;39.17;53.57;;
72276;Laerm;61204;49.980;8.358;2023-08-06T01:36:50;46.42;39.80;56.06;;
72276;Laerm;61204;49.980;8.358;2023-08-06T01:39:17;45.58;39.04;54.11;;
72276;Laerm;61204;49.980;8.358;2023-08-06T01:41:47;46.68;39.87;54.31;;
72276;Laerm;61204;49.980;8.358;2023-08-06T01:44:12;47.08;39.66;57.80;;
72276;Laerm;61204;49.980;8.358;2023-08-06T01:46:38;45.68;39.21;56.26;;
72276;Laerm;61204;49.980;8.358;2023-08-06T01:49:04;45.26;40.09;56.72;;
72276;Laerm;61204;49.980;8.358;2023-08-06T01:51:32;43.67;37.84;50.59;;
72276;Laerm;61204;49.980;8.358;2023-08-06T01:53:57;45.87;40.26;56.96;;
72276;Laerm;61204;49.980;8.358;2023-08-06T01:56:23;48.75;39.27;61.00;;
72276;Laerm;61204;49.980;8.358;2023-08-06T01:58:48;45.58;39.20;55.58;;
72276;Laerm;61204;49.980;8.358;2023-08-06T02:01:14;45.29;38.32;59.22;;
72276;Laerm;61204;49.980;8.358;2023-08-06T02:03:41;44.53;38.00;53.58;;
72276;Laerm;61204;49.980;8.358;2023-08-06T02:06:07;44.01;38.29;49.53;;
72276;Laerm;61204;49.980;8.358;2023-08-06T02:08:38;45.68;39.91;52.94;;
72276;Laerm;61204;49.980;8.358;2023-08-06T02:11:05;44.42;40.15;52.46;;
72276;Laerm;61204;49.980;8.358;2023-08-06T02:13:30;44.97;39.62;53.99;;
72276;Laerm;61204;49.980;8.358;2023-08-06T02:15:56;45.92;40.98;52.60;;
72276;Laerm;61204;49.980;8.358;2023-08-06T02:18:24;45.32;39.70;55.44;;
72276;Laerm;61204;49.980;8.358;2023-08-06T02:20:58;46.86;41.73;55.19;;
72276;Laerm;61204;49.980;8.358;2023-08-06T02:23:28;48.13;42.09;59.87;;
72276;Laerm;61204;49.980;8.358;2023-08-06T02:26:04;45.69;38.53;57.32;;
72276;Laerm;61204;49.980;8.358;2023-08-06T02:28:32;47.12;40.34;57.90;;
72276;Laerm;61204;49.980;8.358;2023-08-06T02:30:58;46.79;41.00;54.82;;
72276;Laerm;61204;49.980;8.358;2023-08-06T02:33:23;47.06;40.25;57.31;;
72276;Laerm;61204;49.980;8.358;2023-08-06T02:35:49;49.09;43.49;58.66;;
72276;Laerm;61204;49.980;8.358;2023-08-06T02:38:17;46.14;41.33;58.63;;
72276;Laerm;61204;49.980;8.358;2023-08-06T02:40:46;49.73;42.38;56.40;;
72276;Laerm;61204;49.980;8.358;2023-08-06T02:43:14;49.00;42.40;59.01;;
72276;Laerm;61204;49.980;8.358;2023-08-06T02:45:44;47.87;41.71;57.21;;
72276;Laerm;61204;49.980;8.358;2023-08-06T02:48:10;48.37;41.05;56.71;;
72276;Laerm;61204;49.980;8.358;2023-08-06T02:50:40;48.19;41.38;57.66;;
72276;Laerm;61204;49.980;8.358;2023-08-06T02:53:09;48.73;42.40;60.88;;
72276;Laerm;61204;49.980;8.358;2023-08-06T02:55:35;47.56;41.30;56.96;;
72276;Laerm;61204;49.980;8.358;2023-08-06T02:58:01;48.37;43.15;55.66;;
72276;Laerm;61204;49.980;8.358;2023-08-06T03:00:28;48.21;42.09;58.83;;
72276;Laerm;61204;49.980;8.358;2023-08-06T03:02:53;48.50;40.55;58.62;;
72276;Laerm;61204;49.980;8.358;2023-08-06T03:05:19;50.11;44.73;56.27;;
72276;Laerm;61204;49.980;8.358;2023-08-06T03:07:45;48.00;39.32;59.91;;
72276;Laerm;61204;49.980;8.358;2023-08-06T03:10:13;49.35;43.23;58.88;;
72276;Laerm;61204;49.980;8.358;2023-08-06T03:12:41;50.45;42.33;62.74;;
72276;Laerm;61204;49.980;8.358;2023-08-06T03:15:08;51.51;45.47;62.56;;
72276;Laerm;61204;49.980;8.358;2023-08-06T03:17:36;51.13;45.00;61.17;;
72276;Laerm;61204;49.980;8.358;2023-08-06T03:20:01;51.32;44.90;64.04;;
72276;Laerm;61204;49.980;8.358;2023-08-06T03:22:27;50.22;44.52;60.76;;
72276;Laerm;61204;49.980;8.358;2023-08-06T03:24:55;51.32;45.02;62.31;;
72276;Laerm;61204;49.980;8.358;2023-08-06T03:27:20;51.20;45.45;61.77;;
72276;Laerm;61204;49.980;8.358;2023-08-06T03:29:49;51.14;45.63;58.91;;
72276;Laerm;61204;49.980;8.358;2023-08-06T03:32:20;50.27;43.18;57.93;;
72276;Laerm;61204;49.980;8.358;2023-08-06T03:34:50;49.96;43.97;58.94;;
72276;Laerm;61204;49.980;8.358;2023-08-06T03:37:18;51.08;44.31;61.15;;
72276;Laerm;61204;49.980;8.358;2023-08-06T03:39:46;54.51;47.35;64.69;;
72276;Laerm;61204;49.980;8.358;2023-08-06T03:42:12;52.10;46.16;62.03;;
72276;Laerm;61204;49.980;8.358;2023-08-06T03:44:37;50.25;43.95;59.13;;
72276;Laerm;61204;49.980;8.358;2023-08-06T03:47:03;52.81;47.04;63.08;;
72276;Laerm;61204;49.980;8.358;2023-08-06T03:49:28;52.27;44.60;61.41;;
72276;Laerm;61204;49.980;8.358;2023-08-06T03:51:56;50.92;44.15;63.02;;
72276;Laerm;61204;49.980;8.358;2023-08-06T03:54:22;49.84;44.11;63.25;;
72276;Laerm;61204;49.980;8.358;2023-08-06T03:56:47;50.25;44.36;60.48;;
72276;Laerm;61204;49.980;8.358;2023-08-06T03:59:13;51.14;43.87;58.63;;
72276;Laerm;61204;49.980;8.358;2023-08-06T04:01:38;50.99;45.53;61.34;;
72276;Laerm;61204;49.980;8.358;2023-08-06T04:04:04;48.58;42.91;60.05;;
72276;Laerm;61204;49.980;8.358;2023-08-06T04:06:29;49.71;43.61;64.17;;
72276;Laerm;61204;49.980;8.358;2023-08-06T04:08:55;50.02;45.66;68.57;;
72276;Laerm;61204;49.980;8.358;2023-08-06T04:11:20;49.90;44.14;69.08;;
72276;Laerm;61204;49.980;8.358;2023-08-06T04:13:48;50.75;44.78;59.02;;
72276;Laerm;61204;49.980;8.358;2023-08-06T04:16:14;48.65;43.02;57.64;;
72276;Laerm;61204;49.980;8.358;2023-08-06T04:18:42;49.28;42.87;56.54;;
72276;Laerm;61204;49.980;8.358;2023-08-06T04:21:10;50.14;43.65;59.51;;
72276;Laerm;61204;49.980;8.358;2023-08-06T04:23:35;52.42;47.83;62.20;;
72276;Laerm;61204;49.980;8.358;2023-08-06T04:26:01;51.14;44.66;58.11;;
72276;Laerm;61204;49.980;8.358;2023-08-06T04:28:26;51.22;45.98;59.92;;
72276;Laerm;61204;49.980;8.358;2023-08-06T04:30:52;49.83;43.57;56.64;;
72276;Laerm;61204;49.980;8.358;2023-08-06T04:33:21;51.24;45.06;66.45;;
72276;Laerm;61204;49.980;8.358;2023-08-06T04:35:47;49.87;42.43;64.49;;
72276;Laerm;61204;49.980;8.358;2023-08-06T04:38:13;52.05;46.43;60.96;;
72276;Laerm;61204;49.980;8.358;2023-08-06T04:40:38;51.71;46.21;60.04;;
72276;Laerm;61204;49.980;8.358;2023-08-06T04:43:04;51.67;45.38;63.50;;
72276;Laerm;61204;49.980;8.358;2023-08-06T04:45:29;52.22;46.07;59.07;;
72276;Laerm;61204;49.980;8.358;2023-08-06T04:47:55;52.90;47.14;64.22;;
72276;Laerm;61204;49.980;8.358;2023-08-06T04:50:20;51.53;45.82;59.53;;
72276;Laerm;61204;49.980;8.358;2023-08-06T04:52:46;49.79;44.71;59.22;;
72276;Laerm;61204;49.980;8.358;2023-08-06T04:55:12;50.25;44.42;60.76;;
72276;Laerm;61204;49.980;8.358;2023-08-06T04:57:37;50.62;44.28;58.23;;
72276;Laerm;61204;49.980;8.358;2023-08-06T05:00:04;51.70;46.11;59.40;;
72276;Laerm;61204;49.980;8.358;2023-08-06T05:02:30;51.45;44.93;62.13;;
72276;Laerm;61204;49.980;8.358;2023-08-06T05:04:58;52.23;46.80;68.45;;
72276;Laerm;61204;49.980;8.358;2023-08-06T05:07:24;52.81;47.76;59.61;;
72276;Laerm;61204;49.980;8.358;2023-08-06T05:09:49;51.76;46.37;69.13;;
72276;Laerm;61204;49.980;8.358;2023-08-06T05:12:15;52.39;45.58;62.82;;
72276;Laerm;61204;49.980;8.358;2023-08-06T05:14:40;52.74;48.01;61.19;;
72276;Laerm;61204;49.980;8.358;2023-08-06T05:17:06;52.85;47.01;64.44;;
72276;Laerm;61204;49.980;8.358;2023-08-06T05:19:31;52.39;46.69;59.80;;
72276;Laerm;61204;49.980;8.358;2023-08-06T05:22:00;53.06;47.51;60.74;;
72276;Laerm;61204;49.980;8.358;2023-08-06T05:24:28;52.40;47.63;62.14;;
72276;Laerm;61204;49.980;8.358;2023-08-06T05:26:53;51.83;46.08;61.12;;
72276;Laerm;61204;49.980;8.358;2023-08-06T05:29:19;52.00;47.42;58.65;;
72276;Laerm;61204;49.980;8.358;2023-08-06T05:31:44;52.18;46.68;61.43;;
72276;Laerm;61204;49.980;8.358;2023-08-06T05:34:10;52.27;47.07;61.17;;
72276;Laerm;61204;49.980;8.358;2023-08-06T05:36:38;51.91;45.57;61.76;;
72276;Laerm;61204;49.980;8.358;2023-08-06T05:39:04;53.74;47.51;62.16;;
72276;Laerm;61204;49.980;8.358;2023-08-06T05:41:29;52.73;47.52;60.26;;
72276;Laerm;61204;49.980;8.358;2023-08-06T05:43:55;52.47;46.10;60.25;;
72276;Laerm;61204;49.980;8.358;2023-08-06T05:46:20;51.74;45.00;60.59;;
72276;Laerm;61204;49.980;8.358;2023-08-06T05:48:46;51.54;45.79;59.93;;
72276;Laerm;61204;49.980;8.358;2023-08-06T05:51:11;52.32;46.87;64.77;;
72276;Laerm;61204;49.980;8.358;2023-08-06T05:53:38;52.60;46.89;68.04;;
72276;Laerm;61204;49.980;8.358;2023-08-06T05:56:04;55.96;47.55;76.84;;
72276;Laerm;61204;49.980;8.358;2023-08-06T05:58:29;52.50;47.58;60.62;;
72276;Laerm;61204;49.980;8.358;2023-08-06T06:00:56;53.10;47.01;65.89;;
72276;Laerm;61204;49.980;8.358;2023-08-06T06:03:22;54.55;49.85;71.84;;
72276;Laerm;61204;49.980;8.358;2023-08-06T06:05:47;55.31;49.23;83.23;;
72276;Laerm;61204;49.980;8.358;2023-08-06T06:08:13;54.75;49.10;68.58;;
72276;Laerm;61204;49.980;8.358;2023-08-06T06:10:38;55.39;51.21;72.28;;
72276;Laerm;61204;49.980;8.358;2023-08-06T06:13:04;54.58;50.02;65.89;;
72276;Laerm;61204;49.980;8.358;2023-08-06T06:15:30;55.33;50.02;66.11;;
72276;Laerm;61204;49.980;8.358;2023-08-06T06:17:55;54.70;49.23;64.41;;
72276;Laerm;61204;49.980;8.358;2023-08-06T06:20:21;53.17;47.10;61.21;;
72276;Laerm;61204;49.980;8.358;2023-08-06T06:22:49;54.42;49.17;64.99;;
72276;Laerm;61204;49.980;8.358;2023-08-06T06:25:18;54.83;50.19;74.94;;
72276;Laerm;61204;49.980;8.358;2023-08-06T06:27:43;53.03;47.53;71.42;;
72276;Laerm;61204;49.980;8.358;2023-08-06T06:30:10;54.47;49.20;62.05;;
72276;Laerm;61204;49.980;8.358;2023-08-06T06:32:37;53.32;48.13;59.27;;
72276;Laerm;61204;49.980;8.358;2023-08-06T06:35:05;53.65;47.72;60.42;;
72276;Laerm;61204;49.980;8.358;2023-08-06T06:37:31;55.13;48.20;66.05;;
72276;Laerm;61204;49.980;8.358;2023-08-06T06:39:56;53.29;48.49;62.26;;
72276;Laerm;61204;49.980;8.358;2023-08-06T06:42:22;55.26;50.07;78.55;;
72276;Laerm;61204;49.980;8.358;2023-08-06T06:44:50;55.38;50.59;72.09;;
72276;Laerm;61204;49.980;8.358;2023-08-06T06:47:16;54.87;48.48;71.26;;
72276;Laerm;61204;49.980;8.358;2023-08-06T06:49:43;54.42;50.09;70.99;;
72276;Laerm;61204;49.980;8.358;2023-08-06T06:52:11;56.08;50.24;72.16;;
72276;Laerm;61204;49.980;8.358;2023-08-06T06:54:37;60.19;49.96;86.93;;
72276;Laerm;61204;49.980;8.358;2023-08-06T06:57:08;55.81;51.12;70.05;;
72276;Laerm;61204;49.980;8.358;2023-08-06T06:59:33;54.27;50.10;71.23;;
72276;Laerm;61204;49.980;8.358;2023-08-06T07:01:59;54.73;49.72;62.28;;
72276;Laerm;61204;49.980;8.358;2023-08-06T07:04:25;54.74;49.69;63.26;;
72276;Laerm;61204;49.980;8.358;2023-08-06T07:06:50;55.36;49.65;69.11;;
72276;Laerm;61204;49.980;8.358;2023-08-06T07:09:17;54.26;49.39;62.09;;
72276;Laerm;61204;49.980;8.358;2023-08-06T07:11:43;55.20;50.32;65.10;;
72276;Laerm;61204;49.980;8.358;2023-08-06T07:14:09;55.12;50.40;61.11;;
72276;Laerm;61204;49.980;8.358;2023-08-06T07:16:35;56.27;50.45;67.35;;
72276;Laerm;61204;49.980;8.358;2023-08-06T07:19:00;53.81;48.56;65.70;;
72276;Laerm;61204;49.980;8.358;2023-08-06T07:21:26;55.34;50.26;79.60;;
72276;Laerm;61204;49.980;8.358;2023-08-06T07:23:51;56.14;51.11;78.21;;
72276;Laerm;61204;49.980;8.358;2023-08-06T07:26:17;56.48;49.98;71.53;;
72276;Laerm;61204;49.980;8.358;2023-08-06T07:28:45;60.67;50.82;76.34;;
72276;Laerm;61204;49.980;8.358;2023-08-06T07:31:11;56.72;50.51;75.34;;
72276;Laerm;61204;49.980;8.358;2023-08-06T07:33:36;54.29;49.45;69.86;;
72276;Laerm;61204;49.980;8.358;2023-08-06T07:36:14;54.85;48.52;66.68;;
72276;Laerm;61204;49.980;8.358;2023-08-06T07:38:41;54.41;49.82;60.65;;
72276;Laerm;61204;49.980;8.358;2023-08-06T07:41:09;54.96;49.50;64.07;;
72276;Laerm;61204;49.980;8.358;2023-08-06T07:43:34;54.80;49.86;62.10;;
72276;Laerm;61204;49.980;8.358;2023-08-06T07:46:04;54.21;49.97;61.41;;
72276;Laerm;61204;49.980;8.358;2023-08-06T07:48:30;53.79;47.59;60.41;;
72276;Laerm;61204;49.980;8.358;2023-08-06T07:50:56;54.65;48.72;64.58;;
72276;Laerm;61204;49.980;8.358;2023-08-06T07:53:25;54.36;50.09;63.74;;
72276;Laerm;61204;49.980;8.358;2023-08-06T07:55:55;54.37;47.85;61.98;;
72276;Laerm;61204;49.980;8.358;2023-08-06T07:58:22;53.65;48.54;59.96;;
72276;Laerm;61204;49.980;8.358;2023-08-06T08:00:48;54.67;49.76;67.58;;
72276;Laerm;61204;49.980;8.358;2023-08-06T08:03:16;53.94;48.77;59.56;;
72276;Laerm;61204;49.980;8.358;2023-08-06T08:05:44;54.76;48.04;75.88;;
72276;Laerm;61204;49.980;8.358;2023-08-06T08:08:10;54.50;49.92;66.14;;
72276;Laerm;61204;49.980;8.358;2023-08-06T08:10:36;54.20;48.14;65.45;;
72276;Laerm;61204;49.980;8.358;2023-08-06T08:13:04;53.59;49.30;59.88;;
72276;Laerm;61204;49.980;8.358;2023-08-06T08:15:31;54.15;48.94;65.87;;
72276;Laerm;61204;49.980;8.358;2023-08-06T08:17:58;54.87;50.98;60.78;;
72276;Laerm;61204;49.980;8.358;2023-08-06T08:20:24;53.85;49.16;59.23;;
72276;Laerm;61204;49.980;8.358;2023-08-06T08:22:50;52.77;48.02;65.93;;
72276;Laerm;61204;49.980;8.358;2023-08-06T08:25:16;53.10;48.47;63.56;;
72276;Laerm;61204;49.980;8.358;2023-08-06T08:27:42;53.15;48.20;63.50;;
72276;Laerm;61204;49.980;8.358;2023-08-06T08:30:08;53.17;48.25;60.29;;
72276;Laerm;61204;49.980;8.358;2023-08-06T08:32:34;55.32;49.56;66.16;;
72276;Laerm;61204;49.980;8.358;2023-08-06T08:34:59;55.70;48.97;71.27;;
72276;Laerm;61204;49.980;8.358;2023-08-06T08:37:25;55.10;49.87;73.09;;
72276;Laerm;61204;49.980;8.358;2023-08-06T08:39:51;55.94;50.16;69.92;;
72276;Laerm;61204;49.980;8.358;2023-08-06T08:42:17;54.82;50.81;66.14;;
72276;Laerm;61204;49.980;8.358;2023-08-06T08:44:45;54.17;49.55;63.92;;
72276;Laerm;61204;49.980;8.358;2023-08-06T08:47:12;56.13;49.91;68.50;;
72276;Laerm;61204;49.980;8.358;2023-08-06T08:49:39;53.37;46.99;69.86;;
72276;Laerm;61204;49.980;8.358;2023-08-06T08:52:10;53.69;48.80;66.61;;
72276;Laerm;61204;49.980;8.358;2023-08-06T08:54:39;52.96;48.06;61.71;;
72276;Laerm;61204;49.980;8.358;2023-08-06T08:57:05;53.89;49.21;63.31;;
72276;Laerm;61204;49.980;8.358;2023-08-06T08:59:33;53.20;48.26;65.74;;
72276;Laerm;61204;49.980;8.358;2023-08-06T09:02:01;52.75;48.52;59.90;;
72276;Laerm;61204;49.980;8.358;2023-08-06T09:04:30;56.02;49.84;72.10;;
72276;Laerm;61204;49.980;8.358;2023-08-06T09:06:59;55.47;51.58;62.78;;
72276;Laerm;61204;49.980;8.358;2023-08-06T09:09:34;55.34;50.54;69.44;;
72276;Laerm;61204;49.980;8.358;2023-08-06T09:12:13;55.87;51.13;66.16;;
72276;Laerm;61204;49.980;8.358;2023-08-06T09:14:40;56.14;51.40;68.37;;
72276;Laerm;61204;49.980;8.358;2023-08-06T09:17:09;57.46;50.78;74.73;;
72276;Laerm;61204;49.980;8.358;2023-08-06T09:19:36;61.09;50.51;80.63;;
72276;Laerm;61204;49.980;8.358;2023-08-06T09:22:03;59.41;50.75;77.23;;
72276;Laerm;61204;49.980;8.358;2023-08-06T09:24:28;55.88;50.64;69.23;;
72276;Laerm;61204;49.980;8.358;2023-08-06T09:26:57;56.63;52.15;76.83;;
72276;Laerm;61204;49.980;8.358;2023-08-06T09:29:23;65.42;52.26;84.25;;
72276;Laerm;61204;49.980;8.358;2023-08-06T09:31:50;63.39;52.06;75.72;;
72276;Laerm;61204;49.980;8.358;2023-08-06T09:34:23;54.58;50.15;62.61;;
72276;Laerm;61204;49.980;8.358;2023-08-06T09:36:52;54.13;50.62;63.48;;
72276;Laerm;61204;49.980;8.358;2023-08-06T09:39:29;56.02;49.99;66.61;;
72276;Laerm;61204;49.980;8.358;2023-08-06T09:42:01;58.45;51.31;70.35;;
72276;Laerm;61204;49.980;8.358;2023-08-06T09:44:31;54.66;48.87;66.88;;
72276;Laerm;61204;49.980;8.358;2023-08-06T09:47:03;53.37;48.79;64.30;;
72276;Laerm;61204;49.980;8.358;2023-08-06T09:52:00;54.20;48.29;63.36;;
72276;Laerm;61204;49.980;8.358;2023-08-06T09:54:27;54.17;48.23;68.14;;
72276;Laerm;61204;49.980;8.358;2023-08-06T09:56:57;53.24;49.02;66.28;;
72276;Laerm;61204;49.980;8.358;2023-08-06T09:59:23;53.95;49.20;65.09;;
72276;Laerm;61204;49.980;8.358;2023-08-06T10:01:50;53.82;49.38;66.08;;
72276;Laerm;61204;49.980;8.358;2023-08-06T10:04:16;58.08;49.05;71.37;;
72276;Laerm;61204;49.980;8.358;2023-08-06T10:06:47;56.93;49.18;77.17;;
72276;Laerm;61204;49.980;8.358;2023-08-06T10:09:16;53.24;49.69;62.48;;
72276;Laerm;61204;49.980;8.358;2023-08-06T10:11:51;54.39;50.14;64.88;;
72276;Laerm;61204;49.980;8.358;2023-08-06T10:14:39;56.32;49.64;71.48;;
72276;Laerm;61204;49.980;8.358;2023-08-06T10:17:10;55.36;49.93;67.86;;
72276;Laerm;61204;49.980;8.358;2023-08-06T10:19:36;56.80;49.92;71.08;;
72276;Laerm;61204;49.980;8.358;2023-08-06T10:22:15;55.23;49.11;74.39;;
72276;Laerm;61204;49.980;8.358;2023-08-06T10:24:56;54.92;49.68;70.28;;
72276;Laerm;61204;49.980;8.358;2023-08-06T10:30:47;56.90;50.43;77.32;;
72276;Laerm;61204;49.980;8.358;2023-08-06T10:33:13;57.17;49.87;72.70;;
72276;Laerm;61204;49.980;8.358;2023-08-06T10:35:48;62.34;50.72;77.95;;
72276;Laerm;61204;49.980;8.358;2023-08-06T10:38:21;60.12;50.43;81.79;;
72276;Laerm;61204;49.980;8.358;2023-08-06T10:41:02;56.58;50.03;70.82;;
72276;Laerm;61204;49.980;8.358;2023-08-06T10:43:37;60.00;48.81;81.54;;
72276;Laerm;61204;49.980;8.358;2023-08-06T10:46:26;53.17;48.13;66.62;;
72276;Laerm;61204;49.980;8.358;2023-08-06T10:48:52;56.36;49.40;71.99;;
72276;Laerm;61204;49.980;8.358;2023-08-06T10:51:18;59.69;48.52;74.02;;
72276;Laerm;61204;49.980;8.358;2023-08-06T10:53:49;59.52;49.18;77.84;;
72276;Laerm;61204;49.980;8.358;2023-08-06T10:56:23;65.57;51.25;85.54;;
72276;Laerm;61204;49.980;8.358;2023-08-06T10:58:54;64.50;51.75;84.90;;
72276;Laerm;61204;49.980;8.358;2023-08-06T11:01:22;62.66;50.74;79.56;;
72276;Laerm;61204;49.980;8.358;2023-08-06T11:03:51;54.71;49.14;72.76;;
72276;Laerm;61204;49.980;8.358;2023-08-06T11:06:20;57.47;49.71;71.99;;
72276;Laerm;61204;49.980;8.358;2023-08-06T11:08:53;59.40;50.08;74.79;;
72276;Laerm;61204;49.980;8.358;2023-08-06T11:11:23;68.76;51.66;91.75;;
72276;Laerm;61204;49.980;8.358;2023-08-06T11:13:50;71.72;52.06;93.41;;
72276;Laerm;61204;49.980;8.358;2023-08-06T11:16:26;73.08;54.52;90.66;;
72276;Laerm;61204;49.980;8.358;2023-08-06T11:18:52;68.41;53.93;91.19;;
72276;Laerm;61204;49.980;8.358;2023-08-06T11:21:25;64.44;52.57;86.71;;
72276;Laerm;61204;49.980;8.358;2023-08-06T11:23:51;65.70;53.12;88.05;;
72276;Laerm;61204;49.980;8.358;2023-08-06T11:26:21;72.71;53.10;89.59;;
72276;Laerm;61204;49.980;8.358;2023-08-06T11:28:49;68.74;52.28;89.29;;
72276;Laerm;61204;49.980;8.358;2023-08-06T11:31:24;62.16;51.93;83.76;;
72276;Laerm;61204;49.980;8.358;2023-08-06T11:33:53;62.05;51.26;79.99;;
72276;Laerm;61204;49.980;8.358;2023-08-06T11:36:42;65.60;51.96;82.65;;
72276;Laerm;61204;49.980;8.358;2023-08-06T11:39:09;65.70;50.92;88.00;;
72276;Laerm;61204;49.980;8.358;2023-08-06T11:41:36;69.26;51.86;86.83;;
72276;Laerm;61204;49.980;8.358;2023-08-06T11:44:06;62.89;51.51;81.56;;
72276;Laerm;61204;49.980;8.358;2023-08-06T11:46:55;67.23;50.31;88.11;;
72276;Laerm;61204;49.980;8.358;2023-08-06T11:49:41;62.25;51.16;82.69;;
72276;Laerm;61204;49.980;8.358;2023-08-06T11:52:30;66.59;52.39;82.78;;
72276;Laerm;61204;49.980;8.358;2023-08-06T11:55:07;71.42;52.36;89.34;;
72276;Laerm;61204;49.980;8.358;2023-08-06T11:57:44;65.98;51.16;89.52;;
72276;Laerm;61204;49.980;8.358;2023-08-06T12:00:14;68.89;52.20;87.89;;
72276;Laerm;61204;49.980;8.358;2023-08-06T12:02:45;62.53;51.95;79.24;;
72276;Laerm;61204;49.980;8.358;2023-08-06T12:05:21;65.08;51.83;83.21;;
72276;Laerm;61204;49.980;8.358;2023-08-06T12:07:56;66.25;51.76;87.78;;
72276;Laerm;61204;49.980;8.358;2023-08-06T12:10:26;65.29;51.11;83.65;;
72276;Laerm;61204;49.980;8.358;2023-08-06T12:12:53;62.86;50.67;82.06;;
72276;Laerm;61204;49.980;8.358;2023-08-06T12:15:18;61.43;51.65;82.35;;
72276;Laerm;61204;49.980;8.358;2023-08-06T12:17:44;59.57;50.93;79.96;;
72276;Laerm;61204;49.980;8.358;2023-08-06T12:20:11;55.73;50.00;75.66;;
72276;Laerm;61204;49.980;8.358;2023-08-06T12:22:38;60.85;51.04;80.60;;
72276;Laerm;61204;49.980;8.358;2023-08-06T12:25:08;56.45;51.09;71.72;;
72276;Laerm;61204;49.980;8.358;2023-08-06T12:27:39;63.88;50.91;80.57;;
72276;Laerm;61204;49.980;8.358;2023-08-06T12:30:06;59.28;49.92;82.22;;
72276;Laerm;61204;49.980;8.358;2023-08-06T12:32:34;65.48;52.10;84.52;;
72276;Laerm;61204;49.980;8.358;2023-08-06T12:35:00;65.94;51.69;84.92;;
72276;Laerm;61204;49.980;8.358;2023-08-06T12:37:27;68.18;51.46;84.92;;
72276;Laerm;61204;49.980;8.358;2023-08-06T12:39:53;68.29;52.79;91.76;;
72276;Laerm;61204;49.980;8.358;2023-08-06T12:42:19;64.17;52.14;83.52;;
72276;Laerm;61204;49.980;8.358;2023-08-06T12:44:45;67.53;53.00;83.99;;
72276;Laerm;61204;49.980;8.358;2023-08-06T12:47:10;68.87;52.93;87.12;;
72276;Laerm;61204;49.980;8.358;2023-08-06T12:49:36;60.88;52.65;77.78;;
72276;Laerm;61204;49.980;8.358;2023-08-06T12:52:02;66.97;54.31;82.51;;
72276;Laerm;61204;49.980;8.358;2023-08-06T12:54:31;64.03;52.83;80.46;;
72276;Laerm;61204;49.980;8.358;2023-08-06T12:57:03;66.45;52.00;84.90;;
72276;Laerm;61204;49.980;8.358;2023-08-06T12:59:29;63.70;52.56;79.63;;
72276;Laerm;61204;49.980;8.358;2023-08-06T13:01:57;66.43;54.01;81.82;;
72276;Laerm;61204;49.980;8.358;2023-08-06T13:04:22;62.34;52.94;79.01;;
72276;Laerm;61204;49.980;8.358;2023-08-06T13:06:48;65.28;52.86;80.96;;
72276;Laerm;61204;49.980;8.358;2023-08-06T13:09:15;64.31;52.26;83.53;;
72276;Laerm;61204;49.980;8.358;2023-08-06T13:11:43;69.12;52.12;85.25;;
72276;Laerm;61204;49.980;8.358;2023-08-06T13:14:14;65.31;52.63;82.80;;
72276;Laerm;61204;49.980;8.358;2023-08-06T13:16:43;67.27;52.85;82.96;;
72276;Laerm;61204;49.980;8.358;2023-08-06T13:19:09;69.17;51.59;86.37;;
72276;Laerm;61204;49.980;8.358;2023-08-06T13:22:02;60.96;51.51;76.76;;
72276;Laerm;61204;49.980;8.358;2023-08-06T13:24:29;67.64;50.45;87.11;;
72276;Laerm;61204;49.980;8.358;2023-08-06T13:26:55;58.71;50.57;73.04;;
72276;Laerm;61204;49.980;8.358;2023-08-06T13:29:21;62.44;50.66;76.68;;
72276;Laerm;61204;49.980;8.358;2023-08-06T13:31:46;56.91;50.34;71.50;;
72276;Laerm;61204;49.980;8.358;2023-08-06T13:34:12;58.18;50.80;72.66;;
72276;Laerm;61204;49.980;8.358;2023-08-06T13:36:37;64.56;50.01;85.81;;
72276;Laerm;61204;49.980;8.358;2023-08-06T13:39:06;57.91;50.82;75.46;;
72276;Laerm;61204;49.980;8.358;2023-08-06T13:41:31;68.53;51.19;84.90;;
72276;Laerm;61204;49.980;8.358;2023-08-06T13:43:57;64.74;51.74;82.57;;
72276;Laerm;61204;49.980;8.358;2023-08-06T13:46:22;66.65;50.78;84.01;;
72276;Laerm;61204;49.980;8.358;2023-08-06T13:48:48;57.04;51.44;73.33;;
72276;Laerm;61204;49.980;8.358;2023-08-06T13:51:19;65.78;51.80;84.41;;
72276;Laerm;61204;49.980;8.358;2023-08-06T13:53:45;67.71;52.08;83.67;;
72276;Laerm;61204;49.980;8.358;2023-08-06T13:56:11;70.60;52.61;92.77;;
72276;Laerm;61204;49.980;8.358;2023-08-06T13:58:38;67.73;52.65;85.76;;
72276;Laerm;61204;49.980;8.358;2023-08-06T14:01:04;71.15;52.68;87.81;;
72276;Laerm;61204;49.980;8.358;2023-08-06T14:03:30;63.91;51.50;82.59;;